createdAt,value
2019-02-09T00:01:42.848Z,8.20
2019-02-09T00:03:50.038Z,8.10
2019-02-09T00:05:54.751Z,8.10
2019-02-09T00:08:02.085Z,8.10
2019-02-09T00:10:09.325Z,8.10
2019-02-09T00:12:15.455Z,8.10
2019-02-09T00:14:33.535Z,8.10
2019-02-09T00:16:40.326Z,8.20
2019-02-09T00:18:46.177Z,8.10
2019-02-09T00:20:52.888Z,8.10
2019-02-09T00:22:58.415Z,8.10
2019-02-09T00:25:05.391Z,8.10
2019-02-09T00:27:10.647Z,8.10
2019-02-09T00:29:15.750Z,8.10
2019-02-09T00:31:23.245Z,8.10
2019-02-09T00:33:28.232Z,8.10
2019-02-09T00:35:33.162Z,8.10
2019-02-09T00:37:38.023Z,8.10
2019-02-09T00:39:42.873Z,8.10
2019-02-09T00:41:47.637Z,8.10
2019-02-09T00:43:52.497Z,8.10
2019-02-09T00:45:57.358Z,8.10
2019-02-09T00:48:02.226Z,8.00
2019-02-09T00:50:07.803Z,8.00
2019-02-09T00:52:12.602Z,8.10
2019-02-09T00:54:17.774Z,8.10
2019-02-09T00:56:22.807Z,8.00
2019-02-09T00:58:27.835Z,8.00
2019-02-09T01:00:33.129Z,8.00
2019-02-09T01:02:38.450Z,8.10
2019-02-09T01:04:43.318Z,8.00
2019-02-09T01:06:48.927Z,8.00
2019-02-09T01:08:53.710Z,8.00
2019-02-09T01:10:58.513Z,8.00
2019-02-09T01:13:03.740Z,8.00
2019-02-09T01:15:13.769Z,8.00
2019-02-09T01:17:18.885Z,8.10
2019-02-09T01:19:23.701Z,8.10
2019-02-09T01:21:28.546Z,8.10
2019-02-09T01:23:36.677Z,8.10
2019-02-09T01:25:41.677Z,8.10
2019-02-09T01:27:46.698Z,8.10
2019-02-09T01:29:51.619Z,8.10
2019-02-09T01:31:56.460Z,8.10
2019-02-09T01:34:01.461Z,8.10
2019-02-09T01:36:06.860Z,8.10
2019-02-09T01:38:12.098Z,8.10
2019-02-09T01:40:22.187Z,8.10
2019-02-09T01:42:27.008Z,8.10
2019-02-09T01:44:31.794Z,8.10
2019-02-09T01:46:36.876Z,8.10
2019-02-09T01:48:42.063Z,8.10
2019-02-09T01:50:47.083Z,8.20
2019-02-09T01:52:51.867Z,8.20
2019-02-09T01:54:56.715Z,8.10
2019-02-09T01:57:01.971Z,8.20
2019-02-09T01:59:07.234Z,8.10
2019-02-09T02:01:12.367Z,8.10
2019-02-09T02:03:17.309Z,8.10
2019-02-09T02:05:23.214Z,8.10
2019-02-09T02:07:28.215Z,8.10
2019-02-09T02:09:33.134Z,8.00
2019-02-09T02:11:37.958Z,8.00
2019-02-09T02:13:43.840Z,8.00
2019-02-09T02:15:48.627Z,8.00
2019-02-09T02:17:53.857Z,8.00
2019-02-09T02:19:58.652Z,8.00
2019-02-09T02:22:03.552Z,8.00
2019-02-09T02:24:10.977Z,8.00
2019-02-09T02:26:15.757Z,8.00
2019-02-09T02:28:21.115Z,8.00
2019-02-09T02:30:33.935Z,8.00
2019-02-09T02:32:38.756Z,8.00
2019-02-09T02:34:43.687Z,8.00
2019-02-09T02:36:49.045Z,8.00
2019-02-09T02:38:54.123Z,8.00
2019-02-09T02:40:58.977Z,8.00
2019-02-09T02:43:03.799Z,8.00
2019-02-09T02:45:10.546Z,8.00
2019-02-09T02:47:15.869Z,8.00
2019-02-09T02:49:20.751Z,8.00
2019-02-09T02:51:25.561Z,8.00
2019-02-09T02:53:30.350Z,8.10
2019-02-09T02:55:35.355Z,8.00
2019-02-09T02:57:40.600Z,8.00
2019-02-09T02:59:45.509Z,8.00
2019-02-09T03:01:50.643Z,8.10
2019-02-09T03:03:55.559Z,8.10
2019-02-09T03:06:00.350Z,8.10
2019-02-09T03:08:06.359Z,8.10
2019-02-09T03:10:11.888Z,8.10
2019-02-09T03:12:17.082Z,8.00
2019-02-09T03:14:22.092Z,8.00
2019-02-09T03:16:26.824Z,8.00
2019-02-09T03:18:31.885Z,7.90
2019-02-09T03:20:36.619Z,7.90
2019-02-09T03:22:41.371Z,7.80
2019-02-09T03:24:46.496Z,7.90
2019-02-09T03:26:51.287Z,7.80
2019-02-09T03:28:56.343Z,7.80
2019-02-09T03:31:01.127Z,7.80
2019-02-09T03:33:05.872Z,7.80
2019-02-09T03:35:11.690Z,7.70
2019-02-09T03:37:16.465Z,7.80
2019-02-09T03:39:21.252Z,7.90
2019-02-09T03:41:25.950Z,7.80
2019-02-09T03:43:30.804Z,7.90
2019-02-09T03:45:35.677Z,7.90
2019-02-09T03:47:40.444Z,7.90
2019-02-09T03:49:45.188Z,7.90
2019-02-09T03:51:50.401Z,7.90
2019-02-09T03:53:55.327Z,7.90
2019-02-09T03:56:00.132Z,7.90
2019-02-09T03:58:05.095Z,7.90
2019-02-09T04:00:16.244Z,7.90
2019-02-09T04:02:21.004Z,7.90
2019-02-09T04:04:25.787Z,7.90
2019-02-09T04:06:30.641Z,7.90
2019-02-09T04:08:35.485Z,7.90
2019-02-09T04:10:40.520Z,7.90
2019-02-09T04:12:45.540Z,7.90
2019-02-09T04:14:50.337Z,7.90
2019-02-09T04:16:55.117Z,7.90
2019-02-09T04:18:59.969Z,7.90
2019-02-09T04:21:04.878Z,7.90
2019-02-09T04:23:09.848Z,7.90
2019-02-09T04:25:16.375Z,7.80
2019-02-09T04:27:21.104Z,7.80
2019-02-09T04:29:25.919Z,7.80
2019-02-09T04:31:31.229Z,7.70
2019-02-09T04:33:36.064Z,7.60
2019-02-09T04:35:41.243Z,7.60
2019-02-09T04:37:46.443Z,7.60
2019-02-09T04:39:51.386Z,7.50
2019-02-09T04:41:56.319Z,7.50
2019-02-09T04:44:01.455Z,7.50
2019-02-09T04:46:06.349Z,7.60
2019-02-09T04:48:11.558Z,7.60
2019-02-09T04:50:17.213Z,7.50
2019-02-09T04:52:22.391Z,7.50
2019-02-09T04:54:27.202Z,7.50
2019-02-09T04:56:32.097Z,7.50
2019-02-09T04:58:37.033Z,7.50
2019-02-09T05:00:41.932Z,7.60
2019-02-09T05:02:47.170Z,7.60
2019-02-09T05:04:52.026Z,7.60
2019-02-09T05:06:57.025Z,7.60
2019-02-09T05:09:01.997Z,7.70
2019-02-09T05:11:06.884Z,7.70
2019-02-09T05:13:12.697Z,7.70
2019-02-09T05:15:18.870Z,7.70
2019-02-09T05:17:23.652Z,7.70
2019-02-09T05:19:28.539Z,7.70
2019-02-09T05:21:33.309Z,7.70
2019-02-09T05:23:38.857Z,7.70
2019-02-09T05:25:43.667Z,7.70
2019-02-09T05:27:48.470Z,7.70
2019-02-09T05:29:53.430Z,7.70
2019-02-09T05:31:58.317Z,7.70
2019-02-09T05:34:03.709Z,7.70
2019-02-09T05:36:08.538Z,7.60
2019-02-09T05:38:13.535Z,7.60
2019-02-09T05:40:19.973Z,7.60
2019-02-09T05:42:24.708Z,7.60
2019-02-09T05:44:29.669Z,7.60
2019-02-09T05:46:34.497Z,7.60
2019-02-09T05:48:39.363Z,7.60
2019-02-09T05:50:44.773Z,7.60
2019-02-09T05:52:50.014Z,7.70
2019-02-09T05:54:54.923Z,7.70
2019-02-09T05:57:00.116Z,7.70
2019-02-09T05:59:05.010Z,7.80
2019-02-09T06:01:09.813Z,7.70
2019-02-09T06:03:15.219Z,7.80
2019-02-09T06:05:20.166Z,7.70
2019-02-09T06:07:25.039Z,7.80
2019-02-09T06:09:30.348Z,7.80
2019-02-09T06:11:35.277Z,7.80
2019-02-09T06:13:40.091Z,7.80
2019-02-09T06:15:44.932Z,7.80
2019-02-09T06:17:49.706Z,7.80
2019-02-09T06:19:54.592Z,7.70
2019-02-09T06:21:59.493Z,7.70
2019-02-09T06:53:54.518Z,7.50
2019-02-09T06:55:59.701Z,7.40
2019-02-09T06:58:05.124Z,7.30
2019-02-09T07:00:13.206Z,7.30
2019-02-09T07:02:18.396Z,7.30
2019-02-09T07:04:23.820Z,7.20
2019-02-09T07:06:28.999Z,7.20
2019-02-09T07:08:33.815Z,7.10
2019-02-09T07:10:39.186Z,7.10
2019-02-09T07:12:43.998Z,7.00
2019-02-09T07:14:49.172Z,7.00
2019-02-09T07:16:54.976Z,7.00
2019-02-09T07:18:59.849Z,7.00
2019-02-09T07:21:05.041Z,7.00
2019-02-09T07:23:09.921Z,7.10
2019-02-09T07:25:15.065Z,7.10
2019-02-09T07:27:19.919Z,7.20
2019-02-09T07:29:24.852Z,7.20
2019-02-09T07:31:31.275Z,7.10
2019-02-09T07:33:38.937Z,7.10
2019-02-09T07:35:43.928Z,7.00
2019-02-09T07:37:50.669Z,7.00
2019-02-09T07:39:55.863Z,7.00
2019-02-09T07:42:01.585Z,7.00
2019-02-09T07:44:07.785Z,7.10
2019-02-09T07:46:12.978Z,7.30
2019-02-09T07:48:17.732Z,7.30
2019-02-09T07:50:24.545Z,7.30
2019-02-09T07:52:29.366Z,7.30
2019-02-09T07:54:34.671Z,8.20
2019-02-09T07:56:39.438Z,9.70
2019-02-09T07:58:45.825Z,10.80
2019-02-09T08:00:51.638Z,11.20
2019-02-09T08:02:56.768Z,11.30
2019-02-09T08:05:01.862Z,12.20
2019-02-09T08:07:21.390Z,12.70
2019-02-09T08:09:26.897Z,13.20
2019-02-09T08:11:32.271Z,13.30
2019-02-09T08:13:37.433Z,13.40
2019-02-09T08:15:42.703Z,14.10
2019-02-09T08:17:47.740Z,14.00
2019-02-09T08:19:52.954Z,13.00
2019-02-09T08:21:58.329Z,13.40
2019-02-09T08:24:03.111Z,13.40
2019-02-09T08:26:08.034Z,13.70
2019-02-09T08:28:13.603Z,12.70
2019-02-09T08:30:21.696Z,14.50
2019-02-09T08:32:27.661Z,15.70
2019-02-09T08:34:33.160Z,15.70
2019-02-09T08:36:38.142Z,15.70
2019-02-09T08:38:43.328Z,15.70
2019-02-09T08:40:48.267Z,15.90
2019-02-09T08:42:57.707Z,16.20
2019-02-09T08:45:02.979Z,16.50
2019-02-09T08:47:07.791Z,17.20
2019-02-09T08:49:12.887Z,17.00
2019-02-09T08:51:18.001Z,17.10
2019-02-09T08:53:22.968Z,15.50
2019-02-09T08:55:28.027Z,14.10
2019-02-09T08:57:34.053Z,13.30
2019-02-09T09:00:02.584Z,13.50
2019-02-09T09:02:07.907Z,12.60
2019-02-09T09:04:12.694Z,11.90
2019-02-09T09:06:17.693Z,11.60
2019-02-09T09:08:22.441Z,11.10
2019-02-09T09:10:28.320Z,10.60
2019-02-09T09:12:33.615Z,10.40
2019-02-09T09:14:38.573Z,10.30
2019-02-09T09:16:43.731Z,10.30
2019-02-09T09:18:48.732Z,10.10
2019-02-09T09:20:55.824Z,10.20
2019-02-09T09:23:00.994Z,10.20
2019-02-09T09:25:06.452Z,10.10
2019-02-09T09:27:11.253Z,10.00
2019-02-09T09:29:16.439Z,9.70
2019-02-09T09:31:21.283Z,9.60
2019-02-09T09:33:26.390Z,9.60
2019-02-09T09:35:31.722Z,9.60
2019-02-09T09:37:36.815Z,9.50
2019-02-09T09:39:41.624Z,9.80
2019-02-09T09:41:46.780Z,10.00
2019-02-09T09:43:51.582Z,10.60
2019-02-09T09:45:56.743Z,10.60
2019-02-09T09:48:01.828Z,10.30
2019-02-09T09:50:08.101Z,10.20
2019-02-09T09:52:13.297Z,10.30
2019-02-09T09:54:18.038Z,10.50
2019-02-09T09:56:23.376Z,10.70
2019-02-09T09:58:33.282Z,10.90
2019-02-09T10:00:38.764Z,11.50
2019-02-09T10:02:44.107Z,11.90
2019-02-09T10:04:50.633Z,11.40
2019-02-09T10:06:55.603Z,10.90
2019-02-09T10:09:00.744Z,10.50
2019-02-09T10:11:05.663Z,10.20
2019-02-09T10:13:10.504Z,9.90
2019-02-09T10:15:18.063Z,10.00
2019-02-09T10:17:23.072Z,10.20
2019-02-09T10:19:28.437Z,10.10
2019-02-09T10:21:33.349Z,10.10
2019-02-09T10:23:38.518Z,10.00
2019-02-09T10:25:43.340Z,9.90
2019-02-09T10:27:48.824Z,9.90
2019-02-09T10:29:53.855Z,9.90
2019-02-09T10:31:58.982Z,9.80
2019-02-09T10:34:03.829Z,9.70
2019-02-09T10:36:08.573Z,9.70
2019-02-09T10:38:13.578Z,9.90
2019-02-09T10:40:24.315Z,10.30
2019-02-09T10:42:29.553Z,10.40
2019-02-09T10:44:34.340Z,10.20
2019-02-09T10:46:43.848Z,10.30
2019-02-09T10:48:49.496Z,10.30
2019-02-09T10:50:54.726Z,10.30
2019-02-09T10:53:00.023Z,10.10
2019-02-09T10:55:05.503Z,9.90
2019-02-09T10:57:10.493Z,9.80
2019-02-09T10:59:15.451Z,9.90
2019-02-09T11:01:22.935Z,9.90
2019-02-09T11:03:28.171Z,9.90
2019-02-09T11:05:33.987Z,9.80
2019-02-09T11:07:39.220Z,9.80
2019-02-09T11:09:44.392Z,9.80
2019-02-09T11:11:49.809Z,9.90
2019-02-09T11:13:54.821Z,9.90
2019-02-09T11:16:01.466Z,10.10
2019-02-09T11:18:07.592Z,10.40
2019-02-09T11:20:15.224Z,10.70
2019-02-09T11:22:20.900Z,11.10
2019-02-09T11:24:26.234Z,11.50
2019-02-09T11:26:33.113Z,11.80
2019-02-09T11:28:41.666Z,11.80
2019-02-09T11:30:46.976Z,11.60
2019-02-09T11:32:51.981Z,11.70
2019-02-09T11:34:58.641Z,11.90
2019-02-09T11:37:03.856Z,11.90
2019-02-09T11:39:09.425Z,12.00
2019-02-09T11:41:14.579Z,12.20
2019-02-09T11:43:20.077Z,12.00
2019-02-09T11:45:28.058Z,11.80
2019-02-09T11:47:32.855Z,11.70
2019-02-09T11:49:37.791Z,11.70
2019-02-09T11:52:17.149Z,11.50
2019-02-09T11:54:40.719Z,11.30
2019-02-09T11:56:45.585Z,11.20
2019-02-09T11:58:50.406Z,10.80
2019-02-09T12:00:55.274Z,10.80
2019-02-09T12:03:03.069Z,10.70
2019-02-09T12:05:07.317Z,10.50
2019-02-09T12:07:12.503Z,10.50
2019-02-09T12:09:17.848Z,10.50
2019-02-09T12:11:23.693Z,10.40
2019-02-09T12:13:28.654Z,10.10
2019-02-09T12:15:34.533Z,10.20
2019-02-09T12:17:39.832Z,10.20
2019-02-09T12:19:45.109Z,10.30
2019-02-09T12:21:50.233Z,10.50
2019-02-09T12:23:55.370Z,10.60
2019-02-09T12:26:00.765Z,10.60
2019-02-09T12:28:07.438Z,10.60
2019-02-09T12:30:14.879Z,10.70
2019-02-09T12:32:21.932Z,10.70
2019-02-09T12:34:27.055Z,10.80
2019-02-09T12:36:32.641Z,10.80
2019-02-09T12:38:38.120Z,10.40
2019-02-09T12:40:43.107Z,10.20
2019-02-09T12:43:10.738Z,10.10
2019-02-09T12:45:16.694Z,10.10
2019-02-09T12:47:21.820Z,10.00
2019-02-09T12:49:26.982Z,10.10
2019-02-09T12:51:35.973Z,10.10
2019-02-09T12:53:49.736Z,10.20
2019-02-09T12:55:55.362Z,10.30
2019-02-09T12:58:01.817Z,10.30
2019-02-09T13:00:47.195Z,10.40
2019-02-09T13:03:06.441Z,10.50
2019-02-09T13:05:13.910Z,10.60
2019-02-09T13:07:26.224Z,10.70
2019-02-09T13:09:36.612Z,10.70
2019-02-09T13:11:57.397Z,10.70
2019-02-09T13:14:39.319Z,10.80
2019-02-09T13:16:50.079Z,11.00
2019-02-09T13:18:59.880Z,11.00
2019-02-09T13:21:12.520Z,10.80
2019-02-09T13:23:18.986Z,10.90
2019-02-09T13:25:48.017Z,10.80
2019-02-09T13:28:16.153Z,11.00
2019-02-09T13:30:29.652Z,11.00
2019-02-09T13:32:38.102Z,10.90
2019-02-09T13:34:55.519Z,10.90
2019-02-09T13:37:06.254Z,11.00
2019-02-09T13:39:11.422Z,11.00
2019-02-09T13:41:27.706Z,10.90
2019-02-09T13:43:36.731Z,10.90
2019-02-09T13:45:44.068Z,10.80
2019-02-09T13:47:50.822Z,10.80
2019-02-09T13:50:00.869Z,10.70
2019-02-09T13:52:10.294Z,10.60
2019-02-09T13:54:16.903Z,10.40
2019-02-09T13:56:29.680Z,10.30
2019-02-09T13:58:46.718Z,10.20
2019-02-09T14:01:00.114Z,10.20
2019-02-09T14:03:05.794Z,10.00
2019-02-09T14:05:12.469Z,9.80
2019-02-09T14:07:23.789Z,9.80
2019-02-09T14:09:35.633Z,9.70
2019-02-09T14:11:40.526Z,9.50
2019-02-09T14:13:46.094Z,9.30
2019-02-09T14:15:51.849Z,9.40
2019-02-09T14:18:00.522Z,9.40
2019-02-09T14:20:08.602Z,9.50
2019-02-09T14:22:13.664Z,9.50
2019-02-09T14:24:41.080Z,9.50
2019-02-09T14:26:55.944Z,9.30
2019-02-09T14:29:18.165Z,9.30
2019-02-09T14:31:33.696Z,9.40
2019-02-09T14:33:41.703Z,9.50
2019-02-09T14:35:51.078Z,9.50
2019-02-09T14:37:57.930Z,9.40
2019-02-09T14:40:06.053Z,9.30
2019-02-09T14:42:14.954Z,9.40
2019-02-09T14:44:20.681Z,9.40
2019-02-09T14:46:50.221Z,9.40
2019-02-09T14:48:57.407Z,9.50
2019-02-09T14:51:02.816Z,9.50
2019-02-09T14:53:08.198Z,9.40
2019-02-09T14:55:16.567Z,9.30
2019-02-09T14:57:21.578Z,9.30
2019-02-09T14:59:28.480Z,9.20
2019-02-09T15:01:34.212Z,9.20
2019-02-09T15:03:39.735Z,9.00
2019-02-09T15:05:44.803Z,9.00
2019-02-09T15:08:00.723Z,9.00
2019-02-09T15:10:12.640Z,9.00
2019-02-09T15:12:18.539Z,9.00
2019-02-09T15:14:23.955Z,9.00
2019-02-09T15:16:48.064Z,9.00
2019-02-09T15:18:53.583Z,9.00
2019-02-09T15:21:11.206Z,9.00
2019-02-09T15:23:28.478Z,9.10
2019-02-09T15:25:35.019Z,9.10
2019-02-09T15:27:50.741Z,9.20
2019-02-09T15:29:56.822Z,9.20
2019-02-09T15:32:01.713Z,9.30
2019-02-09T15:34:10.231Z,9.20
2019-02-09T15:36:14.269Z,9.20
2019-02-09T15:38:22.174Z,9.30
2019-02-09T15:40:36.100Z,9.30
2019-02-09T15:42:43.390Z,9.30
2019-02-09T15:44:48.296Z,9.30
2019-02-09T15:46:53.480Z,9.30
2019-02-09T15:48:58.231Z,9.30
2019-02-09T15:51:03.046Z,9.30
2019-02-09T15:53:08.262Z,9.20
2019-02-09T15:55:14.742Z,9.20
2019-02-09T15:57:21.112Z,9.20
2019-02-09T15:59:26.104Z,9.10
2019-02-09T16:01:31.266Z,9.10
2019-02-09T16:03:36.363Z,9.10
2019-02-09T16:05:41.697Z,9.10
2019-02-09T16:07:47.858Z,9.10
2019-02-09T16:09:52.682Z,9.10
2019-02-09T16:11:58.227Z,9.10
2019-02-09T16:14:03.440Z,9.20
2019-02-09T16:16:10.273Z,9.20
2019-02-09T16:18:15.224Z,9.20
2019-02-09T16:20:23.276Z,9.10
2019-02-09T16:22:28.041Z,9.10
2019-02-09T16:24:38.441Z,9.10
2019-02-09T16:26:43.547Z,9.20
2019-02-09T16:28:50.321Z,9.10
2019-02-09T16:30:55.762Z,9.10
2019-02-09T16:33:00.573Z,9.10
2019-02-09T16:35:07.559Z,9.10
2019-02-09T16:37:12.608Z,9.10
2019-02-09T16:39:17.663Z,9.00
2019-02-09T16:41:27.302Z,8.80
2019-02-09T16:43:35.124Z,8.60
2019-02-09T16:45:41.817Z,8.50
2019-02-09T16:47:46.620Z,8.50
2019-02-09T16:49:51.568Z,8.40
2019-02-09T16:51:56.483Z,8.40
2019-02-09T16:54:01.575Z,8.40
2019-02-09T16:56:06.845Z,8.30
2019-02-09T16:58:11.694Z,8.30
2019-02-09T17:00:20.888Z,8.30
2019-02-09T17:02:25.622Z,8.30
2019-02-09T17:04:33.193Z,8.30
2019-02-09T17:06:37.632Z,8.20
2019-02-09T17:08:43.612Z,8.20
2019-02-09T17:10:48.500Z,8.20
2019-02-09T17:12:53.484Z,8.20
2019-02-09T17:14:58.362Z,8.20
2019-02-09T17:17:03.549Z,8.10
2019-02-09T17:19:08.324Z,8.10
2019-02-09T17:21:13.250Z,8.00
2019-02-09T17:23:17.987Z,8.00
2019-02-09T17:25:23.292Z,8.00
2019-02-09T17:27:28.664Z,8.00
2019-02-09T17:29:40.302Z,8.00
2019-02-09T17:31:45.316Z,8.00
2019-02-09T17:33:50.083Z,8.00
2019-02-09T17:35:55.392Z,8.00
2019-02-09T17:38:00.264Z,8.00
2019-02-09T17:40:06.257Z,8.00
2019-02-09T17:42:11.496Z,8.00
2019-02-09T17:44:16.522Z,8.10
2019-02-09T17:46:23.758Z,8.10
2019-02-09T17:48:29.648Z,8.10
2019-02-09T17:50:44.641Z,8.10
2019-02-09T17:53:03.470Z,8.10
2019-02-09T17:55:10.481Z,8.10
2019-02-09T17:57:15.944Z,8.10
2019-02-09T17:59:20.878Z,8.10
2019-02-09T18:01:26.109Z,8.10
2019-02-09T18:03:30.969Z,8.10
2019-02-09T18:05:35.873Z,8.00
2019-02-09T18:07:40.932Z,8.00
2019-02-09T18:09:45.941Z,8.00
2019-02-09T18:11:50.983Z,8.00
2019-02-09T18:13:55.990Z,8.00
2019-02-09T18:16:00.929Z,8.00
2019-02-09T18:18:07.043Z,8.00
2019-02-09T18:20:13.104Z,8.00
2019-02-09T18:22:18.466Z,8.00
2019-02-09T18:24:23.622Z,8.00
2019-02-09T18:26:29.569Z,8.00
2019-02-09T18:28:34.865Z,7.90
2019-02-09T18:30:44.266Z,8.00
2019-02-09T18:32:50.404Z,8.00
2019-02-09T18:34:56.394Z,8.00
2019-02-09T18:37:02.300Z,8.00
2019-02-09T18:39:13.692Z,8.00
2019-02-09T18:41:19.335Z,8.00
2019-02-09T18:43:24.592Z,8.00
2019-02-09T18:45:30.399Z,8.00
2019-02-09T18:47:35.738Z,8.10
2019-02-09T18:49:40.712Z,8.10
2019-02-09T18:51:45.620Z,8.10
2019-02-09T18:53:50.394Z,8.10
2019-02-09T18:55:55.327Z,8.10
2019-02-09T18:58:00.303Z,8.10
2019-02-09T19:00:06.881Z,8.10
2019-02-09T19:03:17.334Z,8.10
2019-02-09T19:05:36.159Z,8.10
2019-02-09T19:12:10.746Z,8.00
2019-02-09T19:18:09.583Z,7.90
2019-02-09T19:32:20.533Z,7.80
2019-02-09T19:56:08.829Z,7.70
2019-02-09T20:18:36.534Z,7.70
2019-02-09T20:27:16.714Z,7.60
2019-02-09T20:30:06.969Z,7.60
2019-02-09T20:38:44.263Z,7.60
2019-02-09T21:39:24.659Z,7.60
2019-02-09T21:45:36.031Z,7.60
2019-02-09T21:48:00.925Z,7.60
2019-02-09T21:51:00.410Z,7.60
2019-02-09T21:53:42.114Z,7.70
2019-02-09T21:56:04.760Z,7.70
2019-02-09T21:58:14.223Z,7.70
2019-02-09T22:00:39.507Z,7.70
2019-02-09T22:02:45.358Z,7.80
2019-02-09T22:04:50.612Z,7.80
2019-02-09T22:06:55.521Z,7.80
2019-02-09T22:09:00.673Z,7.80
2019-02-09T22:11:05.638Z,7.80
2019-02-09T22:13:10.584Z,7.90
2019-02-09T22:15:18.698Z,7.90
2019-02-09T22:17:23.734Z,7.80
2019-02-09T22:19:28.799Z,7.90
2019-02-09T22:21:34.112Z,7.90
2019-02-09T22:23:39.021Z,7.90
2019-02-09T22:25:43.935Z,7.90
2019-02-09T22:27:49.446Z,7.90
2019-02-09T22:29:55.455Z,8.00
2019-02-09T22:32:01.130Z,8.00
2019-02-09T22:34:06.773Z,8.00
2019-02-09T22:36:12.478Z,8.00
2019-02-09T22:38:17.781Z,8.00
2019-02-09T22:40:24.856Z,8.00
2019-02-09T22:42:30.467Z,8.00
2019-02-09T22:44:35.350Z,8.10
2019-02-09T22:46:41.226Z,8.10
2019-02-09T22:48:46.401Z,8.10
2019-02-09T22:50:51.245Z,8.10
2019-02-09T22:52:56.372Z,8.10
2019-02-09T22:55:01.497Z,8.10
2019-02-09T22:57:06.777Z,8.10
2019-02-09T22:59:11.583Z,8.10
2019-02-09T23:01:45.879Z,8.10
2019-02-09T23:03:56.061Z,8.10
2019-02-09T23:06:41.413Z,8.10
2019-02-09T23:08:46.810Z,8.10
2019-02-09T23:10:51.648Z,8.10
2019-02-09T23:12:56.454Z,8.10
2019-02-09T23:15:01.332Z,8.10
2019-02-09T23:17:06.650Z,8.10
2019-02-09T23:19:11.610Z,8.10
2019-02-09T23:21:17.177Z,8.10
2019-02-09T23:23:22.427Z,8.10
2019-02-09T23:25:31.368Z,8.10
2019-02-09T23:27:36.205Z,8.00
2019-02-09T23:29:41.417Z,8.10
2019-02-09T23:31:46.325Z,8.00
2019-02-09T23:33:51.171Z,8.00
2019-02-09T23:35:56.005Z,8.10
2019-02-09T23:38:00.978Z,8.10
2019-02-09T23:40:06.042Z,8.00
2019-02-09T23:42:11.235Z,8.00
2019-02-09T23:44:16.353Z,8.10
2019-02-09T23:46:21.119Z,8.10
2019-02-09T23:48:26.101Z,8.10
2019-02-09T23:50:30.847Z,8.10
2019-02-09T23:52:35.664Z,8.10
2019-02-09T23:54:40.742Z,8.10
2019-02-09T23:56:45.560Z,8.10
2019-02-09T23:58:50.398Z,8.10
